This is the latest recevied weather packets stored in our database for station/object KD0MAC. If no packets are shown the sender has not sent any weather packets the latest 1 day(s).
| Time | Temp. | Humidity | Pressure | Rain* | Wind** | Luminosity | Snow |
|---|---|---|---|---|---|---|---|
| 1778119594 | 7.78° C | 83% | 1018.6 hPa | 0 mm | - | 0 W/m² | - |
| 1778118994 | 7.78° C | 83% | 1018.6 hPa | 0 mm | - | 0 W/m² | - |
| 1778118694 | 7.78° C | 82% | 1018.6 hPa | 0 mm | - | 1 W/m² | - |
| 1778118093 | 8.33° C | 80% | 1018.3 hPa | 0 mm | - | 3 W/m² | - |
| 1778117794 | 8.33° C | 79% | 1018.3 hPa | 0 mm | - | 4 W/m² | - |
| 1778117493 | 8.33° C | 78% | 1018.3 hPa | 0 mm | - | 6 W/m² | - |
| 1778117194 | 8.33° C | 79% | 1018.3 hPa | 0 mm | - | 9 W/m² | - |
| 1778116893 | 8.89° C | 78% | 1018.3 hPa | 0 mm | - | 12 W/m² | - |
| 1778116595 | 8.89° C | 77% | 1017.9 hPa | 0 mm | - | 13 W/m² | - |
| 1778116295 | 9.44° C | 76% | 1018.3 hPa | 0 mm | - | 19 W/m² | - |
| 1778115993 | 9.44° C | 76% | 1018.3 hPa | 0 mm | - | 20 W/m² | - |
| 1778115694 | 9.44° C | 74% | 1018.3 hPa | 0 mm | - | 25 W/m² | - |
| 1778115394 | 9.44° C | 72% | 1018.3 hPa | 0 mm | - | 28 W/m² | - |
| 1778115094 | 10° C | 72% | 1018.3 hPa | 0 mm | - | 31 W/m² | - |
| 1778114493 | 10° C | 71% | 1018.3 hPa | 0 mm | - | 50 W/m² | - |
| 1778114194 | 10.56° C | 72% | 1018.3 hPa | 0 mm | - | 59 W/m² | - |
| 1778113594 | 10.56° C | 73% | 1018.3 hPa | 0 mm | - | 71 W/m² | - |
| 1778113296 | 10° C | 72% | 1018.3 hPa | 0 mm | - | 64 W/m² | - |
| 1778112994 | 10° C | 72% | 1018.3 hPa | 0 mm | - | 69 W/m² | - |
| 1778112695 | 10° C | 73% | 1018.3 hPa | 0 mm | - | 66 W/m² | - |
| 1778112394 | 10° C | 73% | 1018.3 hPa | 0 mm | - | 55 W/m² | - |
| 1778109394 | 9.44° C | 73% | 1018.3 hPa | 0 mm | - | 29 W/m² | - |
| 1778108794 | 11.11° C | 67% | 1018.3 hPa | 0 mm | - | 32 W/m² | - |
| 1778108494 | 12.22° C | 59% | 1018.3 hPa | 0 mm | - | 76 W/m² | - |
| 1778107594 | 12.78° C | 57% | 1017.9 hPa | 0 mm | - | 142 W/m² | - |
* Rain latest hour (hover to see other rain measurements)
** Current wind speed in m/s (hover to see current wind gust speed)